Aviation Digital Data Service (ADDS)

Output produced by METARs form (1822 UTC 02 August 2015)
found at http://aviationweather.gov/adds/metars/
 
KSWF 021742Z 0218/0324 22007KT P6SM SCT060 
     FM022000 25008KT P6SM SCT060 
     FM030100 VRB03KT P6SM SCT250 
     FM031300 25008KT P6SM SCT250 
     FM031600 24014G20KT P6SM SCT070 SCT250 
     FM031800 23013G20KT P6SM BKN070 
     PROB30 0319/0324 TS BKN050CB AMD NOT SKED